FW0045 Weather Reports


Display with metric or nautical units.
time (UTC)temp
F
wind
direction
speed
MPH
gust
MPH
rain 1hr
in
rain 24hr
in
rain mn
in
humidity
%
barometer
mb
20170919235547 74 213 0.0 3.0 0.00 0.65 0.01 96 1009.3
20170919234048 74 232 0.0 3.0 0.00 0.65 0.01 96 1009.2
20170919232600 74 252 0.0 0.0 0.00 0.65 0.01 96 1009.0
20170919231107 74 250 0.0 0.0 0.00 0.65 0.01 96 1009.0
20170919225514 74 168 1.0 3.0 0.00 0.65 0.01 95 1008.6
20170919224056 74 188 0.0 0.0 0.00 0.65 0.01 95 1008.6
20170919222459 74 188 0.0 0.0 0.00 0.65 0.01 95 1008.7
20170919221047 74 188 0.0 0.0 0.00 0.65 0.01 95 1008.6
20170919215503 74 188 0.0 0.0 0.00 0.65 0.01 95 1008.5
20170919214044 74 188 0.0 0.0 0.00 0.65 0.01 95 1008.4
20170919212500 74 188 0.0 0.0 0.00 0.65 0.01 95 1008.4
20170919211046 74 188 0.0 0.0 0.00 0.65 0.01 95 1008.5
20170919205541 74 188 0.0 0.0 0.00 0.65 0.01 95 1008.7
20170919204000 74 304 0.0 0.0 0.00 0.65 0.01 95 1008.7
20170919202444 74 304 0.0 0.0 0.00 0.65 0.01 95 1008.9
20170919200958 74 304 0.0 3.0 0.00 0.65 0.01 95 1009.0
20170919195459 74 277 1.0 3.0 0.00 0.65 0.01 94 1009.1
20170919194001 74 277 0.0 3.0 0.00 0.65 0.01 94 1009.1
20170919192514 74 335 0.0 2.0 0.00 0.65 0.01 94 1009.1
20170919190959 74 224 1.0 3.0 0.00 0.65 0.01 94 1009.2
20170919185450 74 277 0.0 3.0 0.00 0.65 0.01 94 1009.2
20170919184003 74 277 0.0 3.0 0.00 0.65 0.01 94 1009.2
20170919182500 74 276 0.0 4.0 0.00 0.65 0.01 94 1009.3
20170919180947 74 321 0.0 0.0 0.00 0.65 0.01 94 1009.6
20170919175509 74 321 0.0 0.0 0.00 0.65 0.01 93 1010.0
20170919173954 74 5 0.0 0.0 0.00 0.65 0.01 92 1010.3
20170919172447 74 5 0.0 0.0 0.00 0.65 0.01 92 1010.5
20170919170949 74 5 0.0 2.0 0.01 0.65 0.01 92 1010.9
20170919165452 75 302 2.0 6.0 0.01 0.65 0.01 92 1011.0
20170919163956 75 17 4.0 12.0 0.01 0.65 0.01 92 1011.2
20170919162450 75 355 4.0 9.0 0.01 0.65 0.01 92 1011.3
20170919160944 75 360 5.0 11.0 0.00 0.65 0.00 92 1011.4
20170919155356 75 26 2.0 8.0 0.00 0.65 0.65 92 1011.3
20170919153946 75 355 0.0 2.0 0.00 0.65 0.65 92 1011.2
20170919152405 75 302 0.0 3.0 0.00 0.65 0.65 92 1011.1
20170919150856 74 61 0.0 1.0 0.00 0.65 0.65 94 1011.1
20170919145403 74 355 0.0 3.0 0.00 0.65 0.65 94 1011.3
20170919143909 75 350 0.0 2.0 0.00 0.65 0.65 93 1011.0
20170919142352 75 48 1.0 3.0 0.00 0.65 0.65 93 1010.7
20170919140855 75 307 0.0 0.0 0.00 0.65 0.65 93 1010.5
20170919135353 75 306 0.0 2.0 0.00 0.65 0.65 93 1010.7
20170919133902 75 317 0.0 3.0 0.00 0.65 0.65 93 1010.3
20170919132407 75 318 0.0 2.0 0.00 0.65 0.65 93 1009.8
20170919130904 75 221 1.0 4.0 0.00 0.65 0.65 88 1009.8
20170919125359 74 313 1.0 3.0 0.00 0.65 0.65 93 1009.6
20170919123855 74 294 0.0 0.0 0.00 0.65 0.65 95 1009.7
20170919122409 74 293 1.0 3.0 0.00 0.65 0.65 95 1009.6
20170919120854 74 290 0.0 2.0 0.00 0.65 0.65 95 1009.6
20170919115509 74 288 1.0 3.0 0.00 0.65 0.65 95 1009.3
20170919113904 74 336 0.0 3.0 0.00 0.65 0.65 94 1009.3
20170919112354 75 27 3.0 10.0 0.00 0.65 0.65 95 1009.3
20170919110847 75 360 7.0 13.0 0.00 0.65 0.65 94 1009.0
20170919105400 75 355 2.0 4.0 0.01 0.65 0.65 94 1008.8
20170919103852 75 249 0.0 3.0 0.02 0.65 0.65 94 1008.4
20170919102352 75 165 1.0 6.0 0.02 0.65 0.65 94 1008.1
20170919100843 75 189 3.0 8.0 0.02 0.65 0.65 94 1008.3
20170919095354 74 153 0.0 4.0 0.02 0.65 0.64 94 1008.0
20170919093857 74 111 1.0 6.0 0.01 0.64 0.63 94 1008.0
20170919092350 74 144 4.0 9.0 0.06 0.64 0.63 94 1007.9
20170919090842 74 145 1.0 5.0 0.12 0.64 0.63 94 1008.1
20170919085256 75 78 2.0 5.0 0.20 0.63 0.62 94 1008.4
20170919083846 75 122 2.0 9.0 0.20 0.63 0.62 93 1008.4
20170919082259 75 87 7.0 13.0 0.16 0.57 0.56 92 1008.1
20170919080751 77 12 9.0 16.0 0.05 0.47 0.46 89 1008.4
20170919075313 78 90 1.0 7.0 0.00 0.43 0.42 90 1008.0
20170919073802 79 118 3.0 9.0 0.00 0.43 0.42 89 1008.2
20170919072301 80 71 5.0 9.0 0.00 0.43 0.42 88 1008.2
20170919070755 80 113 3.0 7.0 0.01 0.43 0.42 88 1008.3
20170919065259 80 120 1.0 6.0 0.01 0.46 0.42 89 1008.4
20170919063751 81 163 1.0 5.0 0.01 0.46 0.42 88 1008.6
20170919062254 80 171 1.0 9.0 0.01 0.46 0.42 92 1008.6
20170919060809 78 196 4.0 6.0 0.00 0.46 0.41 92 1008.8
20170919055414 78 178 4.0 7.0 0.01 0.46 0.41 93 1009.1
20170919053752 78 217 1.0 7.0 0.31 0.46 0.41 94 1009.6
20170919050803 78 169 0.0 3.0 0.41 0.46 0.41 92 1010.0
20170919045300 79 264 3.0 7.0 0.39 0.43 0.39 90 1010.2
20170919043806 81 315 1.0 8.0 0.09 0.14 0.09 84 1010.5
20170919042249 84 333 2.0 10.0 0.00 0.05 0.00 78 1010.5
20170919040812 84 285 4.0 10.0 0.00 0.05 0.00 76 1010.9
20170919035252 86 196 0.0 6.0 0.00 0.05 0.00 73 1011.0
20170919033741 86 226 4.0 6.0 0.00 0.05 0.00 74 1011.2
20170919032252 86 153 0.0 3.0 0.00 0.05 0.00 72 1011.5
20170919030746 84 226 3.0 5.0 0.00 0.05 0.00 73 1011.8
20170919025254 84 243 0.0 5.0 0.00 0.05 0.00 76 1011.9
20170919023759 84 161 2.0 5.0 0.00 0.05 0.00 74 1012.0
20170919022255 85 109 0.0 5.0 0.00 0.05 0.00 79 1012.0
20170919020748 84 41 0.0 4.0 0.00 0.05 0.00 78 1012.2
20170919015246 83 277 0.0 3.0 0.00 0.05 0.00 78 1012.1
20170919013803 82 52 0.0 3.0 0.00 0.05 0.00 80 1012.0
20170919012258 80 317 0.0 3.0 0.00 0.05 0.00 84 1012.0
20170919010632 79 259 0.0 2.0 0.00 0.05 0.00 88 1011.7
20170919005245 78 252 1.0 3.0 0.00 0.05 0.00 89 1011.6
20170919003834 77 349 0.0 0.0 0.00 0.05 0.00 90 1011.4
20170919002254 76 349 0.0 0.0 0.00 0.05 0.00 92 1011.3
20170919000639 75 349 0.0 0.0 0.00 0.05 0.00 95 1011.1